Time;durP1;ratioP1;P1;durP2;ratioP2;P2;SDS_P1;SDS_P2;PMS_P1;PMS_P2;Temp;Humidity;BMP_temperature;BMP_pressure;BME280_temperature;BME280_humidity;BME280_pressure;Samples;Min_cycle;Max_cycle;Signal;HPM_P1;HPM_P2
2023/10/08 00:01:55;;;;;;;7.78;4.60;;;;;;;16.34;70.18;98791.94;5054055;28;20480;-73
2023/10/08 00:04:21;;;;;;;8.95;5.03;;;;;;;16.42;70.00;98794.16;5037772;28;20039;-73
2023/10/08 00:06:46;;;;;;;11.68;5.05;;;;;;;16.37;70.13;98787.88;5071569;28;20099;-73
2023/10/08 00:09:12;;;;;;;10.18;5.32;;;;;;;16.27;70.44;98780.50;5053813;28;20036;-74
2023/10/08 00:11:38;;;;;;;9.15;5.10;;;;;;;16.30;70.54;98790.84;5071718;28;20060;-71
2023/10/08 00:14:08;;;;;;;9.32;5.07;;;;;;;16.28;70.66;98787.59;5053790;28;20130;-72
2023/10/08 00:16:34;;;;;;;7.63;4.32;;;;;;;16.21;71.07;98776.16;5054005;28;20519;-71
2023/10/08 00:19:07;;;;;;;8.80;5.28;;;;;;;16.27;71.07;98785.94;5036748;28;20056;-71
2023/10/08 00:21:34;;;;;;;8.60;5.38;;;;;;;16.24;71.02;98770.16;5054678;28;20518;-72
2023/10/08 00:24:01;;;;;;;12.07;5.70;;;;;;;16.11;70.81;98759.78;5053877;28;20021;-72
2023/10/08 00:26:27;;;;;;;10.23;5.53;;;;;;;16.16;71.14;98767.13;5053177;28;20511;-72
2023/10/08 00:28:56;;;;;;;9.05;5.55;;;;;;;16.22;71.12;98777.75;5068307;28;20431;-71
2023/10/08 00:31:29;;;;;;;8.82;4.80;;;;;;;16.18;71.01;98762.25;5052693;28;20058;-71
2023/10/08 00:33:56;;;;;;;9.85;4.95;;;;;;;16.12;71.21;98756.00;5053449;28;20032;-73
2023/10/08 00:36:23;;;;;;;6.95;4.60;;;;;;;16.20;71.35;98769.06;5070051;28;20021;-72
2023/10/08 00:38:53;;;;;;;6.82;4.50;;;;;;;16.21;71.37;98770.69;5053294;28;20451;-73
2023/10/08 00:41:21;;;;;;;10.65;4.75;;;;;;;16.14;71.54;98759.25;5037162;28;20081;-72
2023/10/08 00:43:48;;;;;;;7.75;4.85;;;;;;;16.16;71.35;98762.53;5070056;28;20115;-69
2023/10/08 00:46:29;;;;;;;11.55;5.78;;;;;;;16.11;71.36;98738.03;5053137;28;20480;-73
2023/10/08 00:48:55;;;;;;;9.25;5.10;;;;;;;16.10;71.53;98747.31;5035662;28;20040;-74
2023/10/08 00:51:32;;;;;;;10.70;4.78;;;;;;;16.11;71.46;98748.09;5036144;28;20039;-73
2023/10/08 00:54:10;;;;;;;8.45;4.80;;;;;;;16.10;71.53;98769.03;5053533;28;20035;-73
2023/10/08 00:59:23;;;;;;;8.25;4.70;;;;;;;16.05;71.98;98777.16;5051205;28;20560;-73
2023/10/08 01:01:58;;;;;;;10.15;4.85;;;;;;;16.13;71.97;98795.66;5036945;28;20029;-73
2023/10/08 01:04:27;;;;;;;10.68;5.20;;;;;;;16.10;71.93;98788.06;5054323;28;20128;-74
2023/10/08 01:07:10;;;;;;;9.82;4.63;;;;;;;16.14;71.67;98786.44;5049615;28;20478;-73
2023/10/08 01:09:37;;;;;;;10.07;4.20;;;;;;;16.08;71.73;98782.06;5041570;28;20036;-74
2023/10/08 01:14:53;;;;;;;10.25;5.15;;;;;;;16.09;72.08;98761.13;5054894;28;20037;-74
2023/10/08 01:17:31;;;;;;;10.27;5.25;;;;;;;16.14;71.93;98767.41;5032662;28;20024;-72
2023/10/08 01:20:05;;;;;;;8.98;5.05;;;;;;;16.10;71.99;98763.59;5048288;28;20123;-73
2023/10/08 01:22:30;;;;;;;7.47;4.93;;;;;;;15.99;72.07;98761.91;5070849;28;20033;-71
2023/10/08 01:24:56;;;;;;;8.68;5.13;;;;;;;16.08;72.34;98771.19;5069648;28;20031;-72
2023/10/08 01:27:23;;;;;;;8.43;5.10;;;;;;;16.10;72.08;98774.47;5049323;28;20033;-71
2023/10/08 01:29:50;;;;;;;10.05;5.22;;;;;;;15.99;72.25;98755.66;5052943;28;20052;-73
2023/10/08 01:32:19;;;;;;;11.18;4.93;;;;;;;16.10;72.01;98771.75;5042010;28;20062;-73
2023/10/08 01:34:47;;;;;;;10.43;5.40;;;;;;;16.13;71.74;98765.78;5069652;28;20025;-71
2023/10/08 01:37:17;;;;;;;7.18;4.65;;;;;;;16.14;71.75;98753.84;5036230;28;20429;-71
2023/10/08 01:39:46;;;;;;;11.07;5.05;;;;;;;16.09;71.91;98745.66;5051888;28;20405;-73
2023/10/08 01:42:17;;;;;;;7.95;5.05;;;;;;;16.03;71.80;98735.03;5050017;28;20392;-70
2023/10/08 01:44:46;;;;;;;7.13;4.50;;;;;;;16.12;71.67;98755.19;5054129;28;20542;-71
2023/10/08 01:47:11;;;;;;;8.20;4.82;;;;;;;16.09;71.92;98756.53;5056395;28;20024;-72
2023/10/08 01:49:39;;;;;;;9.63;4.93;;;;;;;16.14;71.67;98761.97;5073043;28;20054;-71
2023/10/08 01:52:07;;;;;;;7.70;4.50;;;;;;;16.00;72.16;98744.53;5074292;28;20365;-71
2023/10/08 01:54:35;;;;;;;9.15;4.70;;;;;;;16.09;72.07;98766.56;5040323;28;20044;-71
2023/10/08 01:57:01;;;;;;;8.38;4.65;;;;;;;16.07;72.05;98758.69;5056026;28;20081;-72
2023/10/08 01:59:26;;;;;;;7.15;4.43;;;;;;;16.01;72.24;98759.75;5039545;28;20488;-73
2023/10/08 02:01:55;;;;;;;7.30;4.57;;;;;;;15.97;72.33;98755.09;5039589;28;20074;-73
2023/10/08 02:04:21;;;;;;;9.52;5.35;;;;;;;15.92;72.40;98747.75;5056917;28;20108;-74
2023/10/08 02:06:47;;;;;;;7.15;4.22;;;;;;;15.94;72.53;98756.44;5069812;28;20147;-73
2023/10/08 02:09:13;;;;;;;9.63;4.70;;;;;;;15.95;72.56;98758.09;5054355;28;20038;-73
2023/10/08 02:11:50;;;;;;;8.32;5.05;;;;;;;16.02;72.46;98760.56;5056416;28;20484;-74
2023/10/08 02:14:16;;;;;;;7.63;4.65;;;;;;;15.86;72.53;98744.22;5056470;28;20498;-74
2023/10/08 02:16:43;;;;;;;7.40;4.38;;;;;;;15.98;72.80;98754.03;5055900;28;20043;-71
2023/10/08 02:19:10;;;;;;;7.15;4.32;;;;;;;15.93;73.05;98757.53;5039012;28;20119;-73
2023/10/08 02:21:39;;;;;;;7.60;4.40;;;;;;;15.91;72.76;98757.00;5055777;28;20024;-72
2023/10/08 02:24:07;;;;;;;8.00;4.47;;;;;;;15.98;72.89;98767.63;5055958;28;20126;-73
2023/10/08 02:26:34;;;;;;;9.40;4.75;;;;;;;15.96;72.89;98778.75;5055609;28;20059;-72
2023/10/08 02:29:00;;;;;;;7.30;4.43;;;;;;;15.95;72.89;98777.09;5038989;28;20178;-73
2023/10/08 02:31:25;;;;;;;7.10;4.38;;;;;;;15.92;72.65;98783.06;5039048;28;20024;-72
2023/10/08 02:33:51;;;;;;;8.15;4.78;;;;;;;15.94;73.00;98775.47;5055616;28;20046;-70
2023/10/08 02:36:18;;;;;;;10.45;5.00;;;;;;;15.67;73.15;98731.34;5055699;28;20028;-70
2023/10/08 02:38:43;;;;;;;7.30;4.57;;;;;;;15.92;73.15;98771.41;5055249;28;20040;-70
2023/10/08 02:41:09;;;;;;;7.80;4.30;;;;;;;15.89;73.24;98772.75;5055424;28;20076;-72
2023/10/08 02:43:36;;;;;;;8.05;4.70;;;;;;;15.78;73.01;98761.00;5073477;28;20036;-71
2023/10/08 02:46:06;;;;;;;8.73;5.28;;;;;;;15.93;73.05;98795.56;5073205;28;20028;-71
2023/10/08 02:48:34;;;;;;;8.35;4.85;;;;;;;15.90;72.86;98786.06;5073036;28;20041;-71
2023/10/08 02:51:11;;;;;;;7.35;4.35;;;;;;;15.86;73.03;98793.09;5055522;28;20035;-71
2023/10/08 02:53:36;;;;;;;11.60;4.70;;;;;;;15.75;73.72;98804.19;5054804;28;20174;-71
2023/10/08 02:56:11;;;;;;;10.52;5.30;;;;;;;15.76;73.24;98806.63;5051232;28;20108;-71
2023/10/08 02:58:38;;;;;;;12.82;5.20;;;;;;;15.71;73.28;98813.91;5063171;28;20032;-71
2023/10/08 03:01:04;;;;;;;8.60;4.82;;;;;;;15.59;73.74;98803.25;5055111;28;20484;-72
2023/10/08 03:03:29;;;;;;;8.38;4.97;;;;;;;15.48;73.84;98814.28;5052005;28;20040;-72
2023/10/08 03:05:58;;;;;;;8.75;4.57;;;;;;;15.52;74.18;98815.44;5050450;28;20468;-71
2023/10/08 03:08:23;;;;;;;6.60;4.63;;;;;;;15.47;74.61;98823.53;5039243;28;20077;-71
2023/10/08 03:10:51;;;;;;;10.70;5.13;;;;;;;15.36;74.18;98805.47;5037483;28;20111;-72
2023/10/08 03:13:19;;;;;;;10.63;5.20;;;;;;;15.42;73.61;98818.03;5054889;28;20028;-73
2023/10/08 03:18:42;;;;;;;6.88;4.32;;;;;;;15.15;74.48;98793.66;5054276;28;20119;-70
2023/10/08 03:21:20;;;;;;;7.68;5.07;;;;;;;15.34;74.77;98818.50;5056792;28;20028;-70
2023/10/08 03:23:57;;;;;;;9.05;4.95;;;;;;;15.23;74.54;98807.59;5039638;28;20036;-70
2023/10/08 03:28:59;;;;;;;8.32;5.13;;;;;;;15.33;74.92;98819.59;5055840;28;20036;-72
2023/10/08 03:34:14;;;;;;;7.82;4.60;;;;;;;15.30;75.20;98801.09;5072595;28;20043;-73
2023/10/08 03:36:46;;;;;;;9.48;4.85;;;;;;;15.28;75.01;98814.94;5054508;28;20399;-72
2023/10/08 03:39:14;;;;;;;6.78;4.35;;;;;;;15.23;75.17;98804.88;5072092;28;20489;-72
2023/10/08 03:41:42;;;;;;;14.40;4.85;;;;;;;15.33;75.31;98835.88;5072259;28;20488;-71
2023/10/08 03:44:16;;;;;;;9.30;4.68;;;;;;;15.17;75.36;98824.88;5051111;28;20037;-73
2023/10/08 03:46:46;;;;;;;7.72;4.63;;;;;;;15.22;75.59;98860.22;5042462;28;20036;-71
2023/10/08 03:49:25;;;;;;;7.75;4.88;;;;;;;15.12;76.37;98841.13;5051542;28;20040;-71
2023/10/08 03:51:53;;;;;;;9.35;4.18;;;;;;;15.21;75.71;98853.16;5071982;28;20037;-71
2023/10/08 03:54:20;;;;;;;7.57;4.70;;;;;;;15.11;76.06;98836.78;5053331;28;20436;-72
2023/10/08 03:56:46;;;;;;;8.48;4.53;;;;;;;15.24;75.82;98846.38;5054175;28;20067;-74
2023/10/08 03:59:13;;;;;;;9.35;4.93;;;;;;;15.18;76.12;98837.38;5053108;28;20033;-74
2023/10/08 04:01:42;;;;;;;10.07;5.10;;;;;;;15.09;75.98;98838.94;5050878;28;20542;-71
2023/10/08 04:04:12;;;;;;;879.40;625.17;;;;;;;15.14;76.47;98846.31;5050357;28;20031;-70
2023/10/08 04:06:38;;;;;;;68.40;45.10;;;;;;;15.02;76.69;98843.75;5070165;28;20072;-70
2023/10/08 04:11:36;;;;;;;24.67;22.35;;;;;;;14.78;76.93;98812.59;5050375;28;20393;-72
2023/10/08 04:14:04;;;;;;;10.50;6.97;;;;;;;15.06;77.22;98835.91;5035126;28;20031;-71
2023/10/08 04:16:36;;;;;;;7.38;4.97;;;;;;;14.95;77.12;98840.44;5070865;28;20063;-73
2023/10/08 04:19:03;;;;;;;16.33;14.73;;;;;;;15.04;77.54;98860.59;5070871;28;20708;-72
2023/10/08 04:21:28;;;;;;;8.60;5.80;;;;;;;15.08;77.27;98848.13;5048902;28;20013;-73
2023/10/08 04:23:57;;;;;;;23.85;21.45;;;;;;;15.27;77.19;98855.91;5069411;28;20438;-72
2023/10/08 04:26:25;;;;;;;13.15;6.68;;;;;;;15.26;77.27;98821.72;5053571;28;20024;-75
2023/10/08 04:28:57;;;;;;;8.52;5.15;;;;;;;15.44;77.29;98851.16;5049986;28;20489;-71
2023/10/08 04:34:15;;;;;;;10.75;4.93;;;;;;;15.58;76.76;98841.53;5053521;28;20089;-73
2023/10/08 04:36:53;;;;;;;11.10;6.97;;;;;;;15.65;76.41;98831.25;5053812;28;20068;-72
2023/10/08 04:39:21;;;;;;;10.70;5.88;;;;;;;15.64;76.26;98818.75;5050234;28;20029;-73
2023/10/08 04:41:48;;;;;;;11.82;6.18;;;;;;;15.65;76.81;98823.13;5049340;28;20024;-74
2023/10/08 04:44:16;;;;;;;12.15;5.00;;;;;;;15.55;76.57;98804.03;5046564;28;20048;-73
2023/10/08 04:49:23;;;;;;;12.23;8.25;;;;;;;15.59;76.40;98789.66;5049895;28;20033;-72
2023/10/08 04:51:48;;;;;;;7.93;5.10;;;;;;;15.62;76.48;98782.91;5069888;28;20090;-72
2023/10/08 04:54:18;;;;;;;10.00;5.10;;;;;;;15.72;76.21;98793.84;5071376;28;20017;-73
2023/10/08 04:56:43;;;;;;;9.48;5.22;;;;;;;15.60;76.39;98771.50;5049985;28;20580;-73
2023/10/08 04:59:11;;;;;;;7.35;4.90;;;;;;;15.62;76.37;98772.03;5066428;28;20103;-74
2023/10/08 05:02:12;;;;;;;8.65;5.13;;;;;;;15.64;76.34;98776.13;5053342;28;20082;-73
2023/10/08 05:04:47;;;;;;;14.52;5.05;;;;;;;15.57;76.57;98772.00;5044789;28;20037;-72
2023/10/08 05:07:40;;;;;;;11.95;5.20;;;;;;;15.54;76.63;98769.84;5050807;28;20481;-72
2023/10/08 05:23:20;;;;;;;9.63;5.30;;;;;;;15.34;77.32;98792.19;5074912;28;20412;-73
2023/10/08 05:31:46;;;;;;;7.63;5.10;;;;;;;15.35;77.11;98777.56;5047792;28;20040;-72
2023/10/08 05:34:22;;;;;;;10.75;5.20;;;;;;;15.46;77.38;98783.88;5043666;28;20032;-72
2023/10/08 05:37:14;;;;;;;12.77;4.90;;;;;;;15.44;77.29;98786.00;5056828;28;20093;-71
2023/10/08 05:42:20;;;;;;;11.32;5.55;;;;;;;15.38;77.18;98787.06;5071508;28;20020;-71
2023/10/08 05:44:50;;;;;;;8.50;5.03;;;;;;;15.15;77.87;98764.63;5056782;28;20484;-71
2023/10/08 05:55:27;;;;;;;9.55;5.07;;;;;;;15.22;78.68;98777.97;5053410;28;20033;-74
2023/10/08 05:58:13;;;;;;;9.13;5.32;;;;;;;15.28;78.40;98787.81;5054602;28;20076;-74
2023/10/08 06:03:35;;;;;;;56.90;30.60;;;;;;;15.20;78.99;98802.66;5051364;28;20071;-75
2023/10/08 06:06:22;;;;;;;69.78;38.10;;;;;;;15.33;78.63;98800.59;5056235;28;20033;-73
2023/10/08 06:09:20;;;;;;;46.50;23.92;;;;;;;15.42;78.30;98820.75;5053509;28;20404;-73
2023/10/08 06:11:41;;;;;;;13.88;10.13;;;;;;;15.44;78.02;98829.44;5042298;28;20127;-74
2023/10/08 06:14:13;;;;;;;12.52;8.70;;;;;;;15.54;77.97;98824.94;5074055;28;20045;-74
2023/10/08 06:16:44;;;;;;;21.25;12.35;;;;;;;15.55;77.96;98820.31;5055585;28;20025;-73
2023/10/08 06:19:13;;;;;;;20.55;13.07;;;;;;;15.66;77.48;98843.78;5055711;28;20033;-74
2023/10/08 06:21:40;;;;;;;13.65;7.28;;;;;;;15.67;77.62;98835.34;5073609;28;20024;-78
2023/10/08 06:24:09;;;;;;;11.65;6.00;;;;;;;15.75;77.58;98855.78;5035970;28;20143;-74
2023/10/08 06:26:42;;;;;;;9.75;5.70;;;;;;;15.72;77.29;98848.16;5050490;28;20107;-75
2023/10/08 06:29:27;;;;;;;12.50;6.05;;;;;;;15.78;77.47;98857.94;5034952;28;20041;-73
2023/10/08 06:32:02;;;;;;;11.20;6.03;;;;;;;15.85;77.11;98863.97;5055622;28;20052;-74
2023/10/08 06:34:31;;;;;;;8.63;5.50;;;;;;;15.86;77.07;98871.88;5056308;28;20042;-74
2023/10/08 06:36:58;;;;;;;13.32;5.75;;;;;;;15.82;77.15;98843.59;5055287;28;20021;-74
2023/10/08 06:39:47;;;;;;;11.60;5.15;;;;;;;15.89;77.23;98865.09;5073597;28;20048;-73
2023/10/08 06:42:16;;;;;;;12.50;5.40;;;;;;;15.88;76.94;98858.84;5058694;28;20040;-74
2023/10/08 06:44:46;;;;;;;10.10;5.70;;;;;;;15.96;77.25;98845.84;5038569;28;20123;-73
2023/10/08 06:47:15;;;;;;;10.45;6.05;;;;;;;16.02;77.16;98853.75;5055969;28;20032;-75
2023/10/08 06:49:42;;;;;;;10.10;5.93;;;;;;;15.93;77.31;98835.50;5055688;28;20043;-76
2023/10/08 06:52:10;;;;;;;10.65;5.85;;;;;;;16.06;77.33;98849.44;5073026;28;20115;-76
2023/10/08 06:54:36;;;;;;;9.45;6.20;;;;;;;16.10;76.80;98842.41;5052235;28;20040;-74
2023/10/08 06:57:01;;;;;;;9.95;5.80;;;;;;;16.06;77.34;98833.13;5064885;28;20025;-74
2023/10/08 06:59:31;;;;;;;9.25;4.97;;;;;;;16.09;77.05;98827.19;5035405;28;20033;-73
2023/10/08 07:01:58;;;;;;;11.70;5.20;;;;;;;16.23;76.64;98833.75;5048607;28;20043;-73
2023/10/08 07:04:24;;;;;;;11.02;5.43;;;;;;;16.35;76.62;98863.44;5055494;28;20040;-73
2023/10/08 07:06:50;;;;;;;10.57;5.13;;;;;;;16.43;76.16;98907.25;5051485;28;20390;-74
2023/10/08 07:09:22;;;;;;;10.10;5.20;;;;;;;16.51;75.78;98904.06;5041172;28;20028;-74
2023/10/08 07:11:54;;;;;;;9.48;5.32;;;;;;;16.56;75.75;98901.38;5049671;28;20033;-74
2023/10/08 07:14:22;;;;;;;9.43;5.45;;;;;;;16.53;75.96;98892.91;5051789;28;20044;-72
2023/10/08 07:16:50;;;;;;;11.27;5.93;;;;;;;16.64;76.12;98912.81;5066885;28;20081;-76
2023/10/08 07:19:17;;;;;;;7.68;4.68;;;;;;;16.64;76.00;98910.09;5051420;28;20045;-73
2023/10/08 07:21:45;;;;;;;12.82;5.88;;;;;;;16.63;75.62;98898.41;5054610;28;20052;-73
2023/10/08 07:24:17;;;;;;;11.73;7.30;;;;;;;16.82;75.50;98928.66;5072602;28;20043;-73
2023/10/08 07:26:46;;;;;;;8.95;5.18;;;;;;;16.86;75.28;98940.66;5055226;28;20428;-73
2023/10/08 07:29:16;;;;;;;11.85;5.22;;;;;;;16.89;75.17;98940.13;5038135;28;20476;-73
2023/10/08 07:31:42;;;;;;;8.98;4.65;;;;;;;16.83;74.79;98924.84;5038532;28;20032;-73
2023/10/08 07:36:49;;;;;;;7.93;5.22;;;;;;;17.03;73.90;98949.41;5049787;28;20397;-73
2023/10/08 07:39:35;;;;;;;8.45;4.93;;;;;;;17.11;73.95;98960.59;5046735;28;20024;-74
2023/10/08 07:42:05;;;;;;;12.07;5.80;;;;;;;17.10;73.78;98958.97;5037043;28;20135;-73
2023/10/08 07:44:30;;;;;;;9.50;5.18;;;;;;;17.03;73.39;98936.63;5067474;28;20040;-74
2023/10/08 07:46:56;;;;;;;11.15;4.90;;;;;;;17.20;73.08;98947.28;5050777;28;20079;-80
2023/10/08 07:49:25;;;;;;;10.35;5.07;;;;;;;17.22;72.93;98950.56;5045162;28;20036;-73
2023/10/08 07:51:51;;;;;;;11.40;5.60;;;;;;;17.34;72.69;98947.59;5043470;28;20653;-74
2023/10/08 07:54:22;;;;;;;15.30;4.93;;;;;;;17.47;72.24;98952.50;5036543;28;20062;-73
2023/10/08 07:56:49;;;;;;;8.93;6.13;;;;;;;17.59;72.50;98951.22;5050912;28;20040;-75
2023/10/08 07:59:17;;;;;;;12.70;5.25;;;;;;;17.68;72.13;98935.13;5037112;28;20028;-74
2023/10/08 08:01:43;;;;;;;10.25;5.18;;;;;;;17.70;72.00;98941.13;5050932;28;20059;-74
2023/10/08 08:04:11;;;;;;;8.50;5.25;;;;;;;17.57;72.00;98920.69;5063765;28;20028;-76
2023/10/08 08:06:39;;;;;;;10.07;4.82;;;;;;;17.68;71.78;98940.56;5043068;28;20178;-73
2023/10/08 08:09:19;;;;;;;10.70;5.15;;;;;;;17.52;72.21;98896.19;5051804;28;20170;-76
2023/10/08 08:11:48;;;;;;;9.50;5.18;;;;;;;17.59;72.22;98891.28;5055280;28;20029;-73
2023/10/08 08:14:16;;;;;;;10.48;4.93;;;;;;;17.58;72.09;98889.63;5071278;28;20040;-75
2023/10/08 08:16:47;;;;;;;11.13;5.57;;;;;;;17.41;72.60;98867.25;5036840;28;20496;-74
2023/10/08 08:19:16;;;;;;;10.25;4.82;;;;;;;17.47;72.66;98871.63;5049988;28;20041;-74
2023/10/08 08:21:45;;;;;;;9.60;5.10;;;;;;;17.40;72.22;98881.97;5048443;28;20024;-74
2023/10/08 08:24:13;;;;;;;12.57;5.40;;;;;;;17.31;72.29;98866.44;5071450;28;20032;-74
2023/10/08 08:27:01;;;;;;;10.25;5.07;;;;;;;17.42;72.39;98885.25;5052012;28;20104;-73
2023/10/08 08:29:28;;;;;;;8.90;4.75;;;;;;;17.31;72.40;98867.28;5070957;28;20036;-73
2023/10/08 08:31:56;;;;;;;12.38;5.70;;;;;;;17.41;72.33;98889.03;5036964;28;20032;-74
2023/10/08 08:34:23;;;;;;;10.45;5.38;;;;;;;17.36;72.38;98908.13;5036861;28;20470;-75
2023/10/08 08:36:49;;;;;;;11.80;5.93;;;;;;;17.48;72.16;98895.03;5070128;28;20016;-73
2023/10/08 08:39:32;;;;;;;14.05;5.38;;;;;;;17.59;72.17;98902.19;5053084;28;20044;-73
2023/10/08 08:42:04;;;;;;;11.25;5.50;;;;;;;17.67;71.88;98915.22;5050581;28;20037;-73
2023/10/08 08:44:30;;;;;;;10.75;5.07;;;;;;;17.56;71.87;98902.72;5052170;28;20484;-75
2023/10/08 08:46:58;;;;;;;11.43;5.43;;;;;;;17.65;71.87;98906.53;5050193;28;20025;-74
2023/10/08 08:49:25;;;;;;;9.88;5.32;;;;;;;17.85;71.70;98922.84;5048910;28;20058;-75
2023/10/08 08:51:53;;;;;;;11.25;5.40;;;;;;;17.84;71.64;98937.59;5049576;28;20393;-73
2023/10/08 08:54:20;;;;;;;9.40;5.10;;;;;;;17.81;71.72;98927.22;5019324;28;20033;-74
2023/10/08 08:56:46;;;;;;;13.30;5.45;;;;;;;17.91;71.28;98943.56;5071240;28;20012;-74
2023/10/08 08:59:11;;;;;;;11.25;5.68;;;;;;;18.01;71.07;98959.13;5036176;28;20036;-74
2023/10/08 09:01:38;;;;;;;10.95;5.25;;;;;;;18.05;71.03;98959.38;5053270;28;20033;-74
2023/10/08 09:04:07;;;;;;;9.63;5.30;;;;;;;18.21;70.57;98952.81;5051917;28;20032;-74
2023/10/08 09:06:40;;;;;;;13.80;6.03;;;;;;;18.24;70.87;98960.44;5049668;28;20049;-75
2023/10/08 09:09:25;;;;;;;9.65;5.15;;;;;;;18.32;70.32;98982.50;5046722;28;20524;-76
2023/10/08 09:11:52;;;;;;;12.25;5.30;;;;;;;18.38;70.74;98989.59;5062993;28;20040;-74
2023/10/08 09:14:22;;;;;;;10.27;5.38;;;;;;;18.26;70.38;98985.53;5053056;28;20060;-74
2023/10/08 09:16:49;;;;;;;11.27;5.38;;;;;;;18.12;70.49;98960.72;5049337;28;20086;-74
2023/10/08 09:19:18;;;;;;;10.65;5.47;;;;;;;18.17;70.54;98982.53;5049390;28;20033;-74
2023/10/08 09:21:59;;;;;;;8.35;5.28;;;;;;;18.13;70.72;98978.75;5047443;28;20123;-74
2023/10/08 09:24:25;;;;;;;13.80;5.70;;;;;;;18.18;70.81;98975.19;5053119;28;20036;-75
2023/10/08 09:26:52;;;;;;;12.40;6.13;;;;;;;18.18;70.73;98989.63;5070635;28;20021;-75
2023/10/08 09:29:17;;;;;;;10.68;5.80;;;;;;;18.07;70.54;98989.91;5052581;28;20060;-74
2023/10/08 09:31:51;;;;;;;10.30;5.47;;;;;;;18.05;70.66;98998.34;5070698;28;20020;-75
2023/10/08 09:34:17;;;;;;;10.25;6.07;;;;;;;18.10;70.66;98989.34;5036124;28;20104;-75
2023/10/08 09:36:43;;;;;;;12.75;5.70;;;;;;;18.17;70.69;98988.00;5052685;28;20037;-75
2023/10/08 09:39:13;;;;;;;11.13;5.60;;;;;;;18.29;70.66;99012.25;5049226;28;20503;-75
2023/10/08 09:41:40;;;;;;;10.48;5.97;;;;;;;18.19;70.83;98993.16;5050778;28;20037;-76
2023/10/08 09:44:10;;;;;;;14.48;5.80;;;;;;;18.25;70.87;98997.53;5052777;28;20032;-74
2023/10/08 09:46:38;;;;;;;11.30;5.85;;;;;;;18.34;70.70;98987.72;5049429;28;20072;-74
2023/10/08 09:49:07;;;;;;;10.27;5.45;;;;;;;18.19;70.50;98977.63;5044252;28;20043;-74
2023/10/08 09:51:38;;;;;;;11.80;5.72;;;;;;;18.32;70.64;98998.06;5036457;28;20032;-75
2023/10/08 09:54:13;;;;;;;10.07;5.32;;;;;;;18.24;70.26;98982.25;5053033;28;20040;-74
2023/10/08 09:56:40;;;;;;;12.85;6.30;;;;;;;18.40;70.15;98995.59;5053095;28;20029;-75
2023/10/08 09:59:07;;;;;;;11.15;6.20;;;;;;;18.35;70.25;98992.06;5049066;28;20025;-75
2023/10/08 10:01:37;;;;;;;10.70;5.53;;;;;;;18.20;69.82;98978.44;5051071;28;20033;-75
2023/10/08 10:04:06;;;;;;;13.10;5.75;;;;;;;18.37;70.10;98989.88;5051924;28;20144;-76
2023/10/08 10:06:31;;;;;;;10.73;5.53;;;;;;;18.27;70.09;98998.06;5050460;28;20390;-75
2023/10/08 10:08:59;;;;;;;12.63;5.60;;;;;;;18.35;70.12;99005.69;5033647;28;20028;-74
2023/10/08 10:11:27;;;;;;;9.35;5.82;;;;;;;18.36;69.91;98988.25;5054238;28;20039;-75
2023/10/08 10:13:59;;;;;;;9.75;6.05;;;;;;;18.40;70.08;99011.13;5071755;28;20383;-74
2023/10/08 10:16:26;;;;;;;11.20;5.68;;;;;;;18.29;70.10;98993.16;5055800;28;20033;-75
2023/10/08 10:18:56;;;;;;;10.70;5.35;;;;;;;18.43;70.12;99010.59;5052152;28;20029;-74
2023/10/08 10:21:32;;;;;;;15.07;5.80;;;;;;;18.46;70.21;98999.97;5036245;28;20499;-75
2023/10/08 10:23:59;;;;;;;8.93;6.13;;;;;;;18.65;70.20;99008.38;5052373;28;20037;-75
2023/10/08 10:26:33;;;;;;;10.80;5.32;;;;;;;18.78;70.03;99002.38;5049088;28;20020;-75
2023/10/08 10:29:11;;;;;;;11.07;6.00;;;;;;;18.88;69.46;98996.84;5056218;28;20150;-75
2023/10/08 10:31:46;;;;;;;14.55;6.13;;;;;;;19.07;69.13;98989.69;5055415;28;20032;-75
2023/10/08 10:34:12;;;;;;;11.70;5.65;;;;;;;19.27;68.77;98978.69;5052337;28;20406;-75
2023/10/08 10:36:41;;;;;;;12.80;5.50;;;;;;;19.32;68.46;98969.63;5032878;28;20021;-74
2023/10/08 10:39:15;;;;;;;10.00;5.68;;;;;;;19.25;68.27;98996.44;5043118;28;20033;-75
2023/10/08 10:41:45;;;;;;;13.20;6.35;;;;;;;19.07;68.26;99006.06;5072396;28;20071;-75
2023/10/08 10:44:14;;;;;;;10.15;5.88;;;;;;;18.85;69.18;99045.75;5052158;28;20044;-75
2023/10/08 10:46:50;;;;;;;10.15;5.90;;;;;;;18.83;69.53;99050.66;5041872;28;20222;-74
2023/10/08 10:49:22;;;;;;;;;;;;;;;18.56;70.09;99059.16;5053334;28;20032;-74
2023/10/08 10:51:57;;;;;;;9.07;6.05;;;;;;;18.68;69.79;99054.25;5052108;28;19919;-75
2023/10/08 10:54:25;;;;;;;13.23;6.80;;;;;;;18.60;70.21;99055.59;5050922;28;20043;-75
2023/10/08 10:57:05;;;;;;;10.25;5.78;;;;;;;18.56;70.17;99049.06;5055137;28;20032;-75
2023/10/08 10:59:36;;;;;;;14.07;6.28;;;;;;;18.58;70.45;99046.88;5040383;28;20090;-75
2023/10/08 11:02:08;;;;;;;10.45;5.68;;;;;;;18.56;70.71;99048.25;5073048;28;20048;-74
2023/10/08 11:04:47;;;;;;;11.18;6.35;;;;;;;18.48;70.45;99018.81;5055653;28;20040;-75
2023/10/08 11:07:21;;;;;;;12.95;6.22;;;;;;;18.49;70.77;99042.25;5071120;28;20056;-75
2023/10/08 11:09:52;;;;;;;10.40;6.10;;;;;;;18.37;71.12;99041.69;5048258;28;20111;-74
2023/10/08 11:12:32;;;;;;;10.95;6.43;;;;;;;18.46;71.22;99051.00;5051778;28;20127;-75
2023/10/08 11:14:57;;;;;;;10.10;5.95;;;;;;;18.42;71.25;99058.06;5056489;28;20036;-76
2023/10/08 11:17:25;;;;;;;10.55;5.97;;;;;;;18.39;71.29;99058.63;5054010;28;20038;-75
2023/10/08 11:19:51;;;;;;;12.07;5.97;;;;;;;18.36;71.34;99064.63;5053551;28;20039;-73
2023/10/08 11:22:17;;;;;;;10.45;4.40;;;;;;;18.12;71.41;99068.97;5072703;28;20020;-70
2023/10/08 11:24:53;;;;;;;6.28;3.95;;;;;;;18.07;71.70;99082.59;5051614;28;20048;-75
2023/10/08 11:27:37;;;;;;;;;;;;;;;17.75;71.94;99090.97;5041705;28;20033;-75
2023/10/08 11:30:10;;;;;;;6.78;3.53;;;;;;;17.77;72.07;99100.53;5053754;28;19936;-74
2023/10/08 11:32:37;;;;;;;6.65;3.70;;;;;;;17.68;71.92;99104.88;5052346;28;20634;-75
2023/10/08 11:35:15;;;;;;;8.73;3.55;;;;;;;17.61;72.54;99111.66;5069657;28;20040;-76
2023/10/08 11:37:45;;;;;;;7.00;3.33;;;;;;;17.53;72.70;99115.69;5035971;28;20146;-76
2023/10/08 11:40:28;;;;;;;5.00;3.40;;;;;;;17.49;72.29;99114.56;5051565;28;20457;-76
2023/10/08 11:42:58;;;;;;;5.18;3.33;;;;;;;17.52;72.39;99108.63;5071020;28;20071;-75
2023/10/08 11:45:25;;;;;;;6.13;3.08;;;;;;;17.56;72.31;99104.28;5033326;28;20045;-75
2023/10/08 11:48:02;;;;;;;5.20;3.33;;;;;;;17.47;72.73;99094.97;5066324;28;20120;-74
2023/10/08 11:50:30;;;;;;;5.07;2.88;;;;;;;17.46;72.41;99076.97;5054709;28;20461;-74
2023/10/08 11:53:01;;;;;;;4.35;2.92;;;;;;;17.50;72.33;99064.47;5050955;28;20024;-74
2023/10/08 11:55:27;;;;;;;3.97;2.60;;;;;;;17.40;72.83;99050.81;5046286;28;20040;-76
2023/10/08 11:57:52;;;;;;;6.32;2.97;;;;;;;17.38;72.83;99044.81;5037112;28;20051;-74
2023/10/08 12:00:24;;;;;;;4.82;3.00;;;;;;;17.22;72.99;99027.59;5050975;28;20048;-74
2023/10/08 12:02:54;;;;;;;4.53;2.80;;;;;;;17.39;72.33;99048.34;5037816;28;20040;-74
2023/10/08 12:05:20;;;;;;;7.18;2.80;;;;;;;17.44;72.55;99053.81;5054419;28;20040;-74
2023/10/08 12:07:57;;;;;;;4.70;2.95;;;;;;;17.42;72.51;99058.69;5050113;28;20056;-75
2023/10/08 12:10:23;;;;;;;3.78;2.63;;;;;;;17.37;72.90;99084.03;5032016;28;20530;-75
2023/10/08 12:12:51;;;;;;;4.38;2.50;;;;;;;17.39;72.67;99090.00;5053831;28;20104;-75
2023/10/08 12:15:19;;;;;;;4.72;2.60;;;;;;;17.23;72.61;99088.31;5071412;28;20042;-75
2023/10/08 12:20:34;;;;;;;2.75;2.00;;;;;;;17.12;72.79;99106.50;5056301;28;20039;-75
2023/10/08 12:22:59;;;;;;;3.35;1.95;;;;;;;17.12;72.44;99111.13;5070240;28;20032;-75
2023/10/08 12:25:25;;;;;;;5.82;1.80;;;;;;;16.93;72.43;99099.03;5053413;28;20560;-75
2023/10/08 12:27:50;;;;;;;3.22;1.80;;;;;;;17.03;72.57;99115.44;5052222;28;20395;-75
2023/10/08 12:30:15;;;;;;;3.78;1.50;;;;;;;16.95;72.74;99121.38;5053433;28;20044;-75
2023/10/08 12:32:42;;;;;;;2.72;1.15;;;;;;;16.81;72.81;99117.47;5053322;28;20046;-75
2023/10/08 12:35:12;;;;;;;1.15;1.05;;;;;;;16.69;72.61;99103.22;5053701;28;20033;-75
2023/10/08 12:37:44;;;;;;;2.20;1.20;;;;;;;16.67;72.62;99094.50;5070900;28;20033;-76
2023/10/08 12:40:22;;;;;;;2.70;1.45;;;;;;;16.84;72.67;99115.06;5034133;28;20068;-75
2023/10/08 12:42:48;;;;;;;4.95;1.27;;;;;;;16.72;72.66;99116.31;5048457;28;20058;-77